Time;durP1;ratioP1;P1;durP2;ratioP2;P2;SDS_P1;SDS_P2;PMS_P1;PMS_P2;Temp;Humidity;BMP_temperature;BMP_pressure;BME280_temperature;BME280_humidity;BME280_pressure;Samples;Min_cycle;Max_cycle;Signal;HPM_P1;HPM_P2
2021/03/09 00:00:08;;;;;;;12.63;4.38;;;;;;;;;;5094006;28;20211;-62
2021/03/09 00:02:35;;;;;;;4.93;3.80;;;;;;;;;;5093965;28;20204;-62
2021/03/09 00:05:02;;;;;;;6.80;3.75;;;;;;;;;;5093913;28;20274;-62
2021/03/09 00:07:30;;;;;;;5.47;3.92;;;;;;;;;;5093437;28;20208;-62
2021/03/09 00:09:57;;;;;;;5.50;4.00;;;;;;;;;;5093843;28;20555;-62
2021/03/09 00:12:24;;;;;;;5.85;4.35;;;;;;;;;;5093602;28;20231;-63
2021/03/09 00:14:51;;;;;;;6.80;4.60;;;;;;;;;;5093780;28;20591;-63
2021/03/09 00:17:17;;;;;;;5.45;4.38;;;;;;;;;;5093788;28;20200;-63
2021/03/09 00:19:44;;;;;;;5.63;4.20;;;;;;;;;;5093786;28;20203;-62
2021/03/09 00:22:11;;;;;;;9.40;6.10;;;;;;;;;;5093511;28;20691;-62
2021/03/09 00:24:39;;;;;;;6.38;4.20;;;;;;;;;;5097637;28;20232;-61
2021/03/09 00:27:09;;;;;;;5.10;4.05;;;;;;;;;;5097992;28;20204;-62
2021/03/09 00:29:35;;;;;;;6.38;4.70;;;;;;;;;;5097574;28;20224;-61
2021/03/09 00:32:02;;;;;;;7.30;3.85;;;;;;;;;;5097727;28;20208;-62
2021/03/09 00:34:29;;;;;;;5.25;4.75;;;;;;;;;;5097538;28;20726;-63
2021/03/09 00:36:56;;;;;;;6.70;4.80;;;;;;;;;;5097825;28;20207;-62
2021/03/09 00:39:23;;;;;;;6.53;4.30;;;;;;;;;;5097901;28;20564;-62
2021/03/09 00:41:50;;;;;;;10.93;4.95;;;;;;;;;;5097289;28;20200;-62
2021/03/09 00:44:17;;;;;;;5.05;3.70;;;;;;;;;;5097587;28;20216;-62
2021/03/09 00:46:44;;;;;;;6.75;4.88;;;;;;;;;;5097206;28;20226;-62
2021/03/09 00:49:11;;;;;;;6.00;4.50;;;;;;;;;;5097270;28;20227;-61
2021/03/09 00:51:37;;;;;;;7.50;4.45;;;;;;;;;;5097678;28;20612;-61
2021/03/09 00:54:04;;;;;;;7.15;5.05;;;;;;;;;;5105330;28;20222;-63
2021/03/09 00:56:31;;;;;;;5.13;4.15;;;;;;;;;;5106654;28;20227;-61
2021/03/09 00:58:58;;;;;;;5.22;4.38;;;;;;;;;;5099416;28;20196;-62
2021/03/09 01:01:25;;;;;;;7.93;4.78;;;;;;;;;;5100630;28;20196;-62
2021/03/09 01:03:52;;;;;;;6.30;4.57;;;;;;;;;;5100993;28;20216;-63
2021/03/09 01:06:19;;;;;;;7.63;4.20;;;;;;;;;;5102958;28;20216;-63
2021/03/09 01:08:45;;;;;;;6.53;4.68;;;;;;;;;;5109295;28;20224;-63
2021/03/09 01:11:12;;;;;;;6.45;4.97;;;;;;;;;;5107399;28;20204;-63
2021/03/09 01:13:39;;;;;;;7.93;5.38;;;;;;;;;;5108344;28;20224;-62
2021/03/09 01:16:07;;;;;;;8.80;4.60;;;;;;;;;;5107365;28;20204;-64
2021/03/09 01:18:34;;;;;;;5.32;4.03;;;;;;;;;;5106767;28;20200;-62
2021/03/09 01:21:00;;;;;;;6.40;4.07;;;;;;;;;;5103230;28;20262;-62
2021/03/09 01:23:27;;;;;;;6.13;4.38;;;;;;;;;;5102553;28;20220;-62
2021/03/09 01:25:54;;;;;;;5.90;4.50;;;;;;;;;;5098483;28;20200;-63
2021/03/09 01:28:21;;;;;;;8.00;4.70;;;;;;;;;;5102171;28;20220;-63
2021/03/09 01:30:48;;;;;;;5.65;4.45;;;;;;;;;;5101695;28;20562;-61
2021/03/09 01:33:16;;;;;;;5.93;5.00;;;;;;;;;;5102330;28;20700;-63
2021/03/09 01:35:42;;;;;;;6.07;4.65;;;;;;;;;;5103042;28;20200;-63
2021/03/09 01:38:09;;;;;;;6.32;4.78;;;;;;;;;;5104837;28;20207;-61
2021/03/09 01:40:36;;;;;;;5.90;4.32;;;;;;;;;;5106298;28;20204;-63
2021/03/09 01:43:03;;;;;;;7.53;4.93;;;;;;;;;;5101590;28;20196;-62
2021/03/09 01:45:30;;;;;;;7.60;4.60;;;;;;;;;;5098425;28;20253;-63
2021/03/09 01:47:59;;;;;;;7.30;4.70;;;;;;;;;;5099369;28;20586;-62
2021/03/09 01:50:27;;;;;;;9.43;5.30;;;;;;;;;;5100442;28;20672;-62
2021/03/09 01:52:54;;;;;;;4.47;3.95;;;;;;;;;;5101329;28;20208;-62
2021/03/09 01:55:21;;;;;;;8.07;5.43;;;;;;;;;;5101212;28;20204;-63
2021/03/09 01:57:48;;;;;;;6.45;5.00;;;;;;;;;;5101804;28;20204;-63
2021/03/09 02:00:15;;;;;;;7.68;5.20;;;;;;;;;;5099282;28;20227;-63
2021/03/09 02:02:42;;;;;;;7.85;5.28;;;;;;;;;;5101469;28;20660;-62
2021/03/09 02:05:13;;;;;;;10.55;5.85;;;;;;;;;;5101015;28;20578;-62
2021/03/09 02:07:41;;;;;;;6.80;5.35;;;;;;;;;;5100650;28;20208;-63
2021/03/09 02:10:09;;;;;;;7.70;4.55;;;;;;;;;;5104156;28;20200;-63
2021/03/09 02:12:40;;;;;;;7.22;6.00;;;;;;;;;;5103281;28;20208;-63
2021/03/09 02:15:11;;;;;;;8.65;5.85;;;;;;;;;;5102562;28;20231;-62
2021/03/09 02:17:41;;;;;;;7.82;5.40;;;;;;;;;;5101107;28;20657;-63
2021/03/09 02:20:23;;;;;;;7.65;5.90;;;;;;;;;;5100585;28;20234;-61
2021/03/09 02:23:19;;;;;;;6.60;5.60;;;;;;;;;;5100802;28;20188;-63
2021/03/09 02:25:54;;;;;;;10.35;5.68;;;;;;;;;;5100301;28;20181;-62
2021/03/09 02:28:26;;;;;;;6.00;5.22;;;;;;;;;;5099545;28;20208;-62
2021/03/09 02:30:55;;;;;;;9.60;5.70;;;;;;;;;;5099844;28;20216;-62
2021/03/09 02:33:26;;;;;;;6.45;4.75;;;;;;;;;;5099391;28;20255;-63
2021/03/09 02:35:54;;;;;;;6.68;5.00;;;;;;;;;;5099804;28;20192;-62
2021/03/09 02:38:22;;;;;;;6.57;5.35;;;;;;;;;;5099243;28;20200;-62
2021/03/09 02:40:51;;;;;;;8.07;5.57;;;;;;;;;;5099375;28;20196;-63
2021/03/09 02:43:18;;;;;;;8.60;5.57;;;;;;;;;;5100354;28;20271;-63
2021/03/09 02:45:48;;;;;;;9.05;6.25;;;;;;;;;;5099483;28;20196;-63
2021/03/09 02:48:16;;;;;;;6.45;5.43;;;;;;;;;;5099116;28;20220;-63
2021/03/09 02:50:43;;;;;;;7.10;5.45;;;;;;;;;;5097745;28;20204;-62
2021/03/09 02:53:12;;;;;;;6.85;5.63;;;;;;;;;;5097699;28;20204;-62
2021/03/09 02:55:40;;;;;;;8.30;5.90;;;;;;;;;;5095659;28;20200;-62
2021/03/09 02:58:08;;;;;;;8.10;5.10;;;;;;;;;;5095145;28;20199;-63
2021/03/09 03:00:35;;;;;;;6.70;5.40;;;;;;;;;;5094903;28;20286;-61
2021/03/09 03:03:04;;;;;;;7.22;6.05;;;;;;;;;;5094568;28;20200;-62
2021/03/09 03:05:32;;;;;;;9.88;5.90;;;;;;;;;;5094569;28;20204;-62
2021/03/09 03:07:58;;;;;;;7.57;5.80;;;;;;;;;;5094746;28;20208;-62
2021/03/09 03:10:27;;;;;;;10.50;6.03;;;;;;;;;;5094346;28;20208;-63
2021/03/09 03:12:54;;;;;;;9.68;6.03;;;;;;;;;;5094754;28;20631;-62
2021/03/09 03:15:21;;;;;;;6.53;5.55;;;;;;;;;;5094574;28;20200;-62
2021/03/09 03:17:48;;;;;;;9.70;6.43;;;;;;;;;;5094521;28;20737;-62
2021/03/09 03:20:16;;;;;;;8.18;6.05;;;;;;;;;;5094558;28;20200;-62
2021/03/09 03:22:45;;;;;;;10.07;6.93;;;;;;;;;;5094551;28;20200;-61
2021/03/09 03:25:13;;;;;;;7.90;6.70;;;;;;;;;;5094263;28;20652;-62
2021/03/09 03:27:41;;;;;;;10.85;6.40;;;;;;;;;;5094474;28;20613;-62
2021/03/09 03:30:09;;;;;;;7.15;5.65;;;;;;;;;;5094334;28;20305;-64
2021/03/09 03:32:36;;;;;;;9.20;7.47;;;;;;;;;;5094375;28;20202;-62
2021/03/09 03:35:03;;;;;;;11.73;6.57;;;;;;;;;;5094677;28;20225;-62
2021/03/09 03:37:30;;;;;;;12.35;6.57;;;;;;;;;;5095281;28;20675;-62
2021/03/09 03:39:58;;;;;;;8.15;6.15;;;;;;;;;;5096507;28;20192;-63
2021/03/09 03:42:25;;;;;;;7.82;6.57;;;;;;;;;;5095755;28;20254;-62
2021/03/09 03:44:52;;;;;;;8.23;6.45;;;;;;;;;;5095257;28;20224;-63
2021/03/09 03:47:18;;;;;;;10.15;6.15;;;;;;;;;;5095181;28;20204;-62
2021/03/09 03:49:45;;;;;;;7.50;6.25;;;;;;;;;;5095242;28;20227;-62
2021/03/09 03:52:20;;;;;;;10.85;6.30;;;;;;;;;;5095366;28;20200;-62
2021/03/09 03:54:51;;;;;;;7.32;6.20;;;;;;;;;;5101974;28;20223;-62
2021/03/09 03:57:21;;;;;;;12.20;6.00;;;;;;;;;;5101005;28;20189;-62
2021/03/09 03:59:51;;;;;;;9.55;6.35;;;;;;;;;;5103925;28;20223;-63
2021/03/09 04:02:18;;;;;;;7.82;6.55;;;;;;;;;;5101456;28;20192;-61
2021/03/09 04:08:04;;;;;;;10.57;7.10;;;;;;;;;;5154302;27;20476;-63
2021/03/09 04:10:31;;;;;;;10.88;6.95;;;;;;;;;;5153113;27;20220;-62
2021/03/09 04:12:57;;;;;;;9.75;6.85;;;;;;;;;;5153169;27;20205;-62
2021/03/09 04:15:25;;;;;;;9.27;6.25;;;;;;;;;;5153316;27;20550;-62
2021/03/09 04:17:53;;;;;;;9.45;6.72;;;;;;;;;;5152840;27;20194;-61
2021/03/09 04:20:21;;;;;;;9.77;6.65;;;;;;;;;;5152920;27;20194;-63
2021/03/09 04:22:48;;;;;;;7.25;6.50;;;;;;;;;;5152808;27;20550;-63
2021/03/09 04:25:16;;;;;;;9.88;6.25;;;;;;;;;;5152869;27;20337;-63
2021/03/09 04:27:42;;;;;;;9.05;6.50;;;;;;;;;;5152722;27;20271;-62
2021/03/09 04:30:12;;;;;;;8.73;6.40;;;;;;;;;;5152302;27;20194;-62
2021/03/09 04:32:39;;;;;;;8.45;5.70;;;;;;;;;;5152428;27;20198;-62
2021/03/09 04:35:06;;;;;;;9.57;6.15;;;;;;;;;;5152483;27;20222;-63
2021/03/09 04:37:33;;;;;;;7.38;4.72;;;;;;;;;;5152432;27;20203;-62
2021/03/09 04:40:00;;;;;;;8.85;5.00;;;;;;;;;;5152509;27;20194;-62
2021/03/09 04:42:28;;;;;;;8.43;5.15;;;;;;;;;;5152454;27;20202;-61
2021/03/09 04:44:55;;;;;;;6.68;5.25;;;;;;;;;;5152325;27;20218;-62
2021/03/09 04:47:22;;;;;;;7.88;4.75;;;;;;;;;;5151930;27;20214;-63
2021/03/09 04:49:49;;;;;;;5.90;4.90;;;;;;;;;;5151716;27;20210;-63
2021/03/09 04:52:16;;;;;;;6.18;4.78;;;;;;;;;;5152303;27;20205;-62
2021/03/09 04:54:42;;;;;;;7.03;5.00;;;;;;;;;;5153570;27;20218;-62
2021/03/09 04:57:09;;;;;;;7.60;5.15;;;;;;;;;;5153090;27;20213;-62
2021/03/09 04:59:37;;;;;;;7.93;5.30;;;;;;;;;;5152020;27;20206;-62
2021/03/09 05:02:04;;;;;;;10.45;6.00;;;;;;;;;;5151525;27;20202;-62
2021/03/09 05:04:30;;;;;;;6.65;5.20;;;;;;;;;;5151724;27;20226;-61
2021/03/09 05:06:57;;;;;;;7.82;6.00;;;;;;;;;;5152274;27;20222;-62
2021/03/09 05:09:24;;;;;;;7.43;5.55;;;;;;;;;;5151430;27;20674;-63
2021/03/09 05:11:51;;;;;;;7.70;5.70;;;;;;;;;;5151529;27;20199;-62
2021/03/09 05:14:17;;;;;;;9.38;5.57;;;;;;;;;;5151900;27;20214;-63
2021/03/09 05:16:45;;;;;;;10.95;5.95;;;;;;;;;;5151397;27;20247;-63
2021/03/09 05:19:12;;;;;;;9.75;6.18;;;;;;;;;;5138496;27;20259;-63
2021/03/09 05:21:38;;;;;;;7.28;6.07;;;;;;;;;;5137331;27;20671;-63
2021/03/09 05:24:06;;;;;;;7.90;6.53;;;;;;;;;;5137077;27;20227;-62
2021/03/09 05:26:32;;;;;;;10.00;6.43;;;;;;;;;;5137008;27;20215;-61
2021/03/09 05:28:59;;;;;;;10.75;7.28;;;;;;;;;;5137244;27;20203;-63
2021/03/09 05:31:26;;;;;;;9.75;6.93;;;;;;;;;;5136927;27;20686;-61
2021/03/09 05:33:54;;;;;;;11.77;7.22;;;;;;;;;;5136907;27;20733;-61
2021/03/09 05:36:20;;;;;;;12.82;8.10;;;;;;;;;;5137404;27;20199;-61
2021/03/09 05:38:47;;;;;;;11.93;8.25;;;;;;;;;;5137396;27;20199;-61
2021/03/09 05:41:14;;;;;;;12.52;8.25;;;;;;;;;;5137150;27;20203;-63
2021/03/09 05:43:41;;;;;;;13.75;8.65;;;;;;;;;;5137184;27;20238;-61
2021/03/09 05:46:08;;;;;;;11.60;8.40;;;;;;;;;;5137179;27;20222;-62
2021/03/09 05:48:36;;;;;;;11.77;7.72;;;;;;;;;;5137142;27;20259;-63
2021/03/09 05:51:05;;;;;;;12.82;8.63;;;;;;;;;;5136513;27;20210;-61
2021/03/09 05:53:31;;;;;;;13.05;8.55;;;;;;;;;;5136839;27;20219;-62
2021/03/09 05:55:58;;;;;;;14.18;8.77;;;;;;;;;;5136858;27;20254;-61
2021/03/09 05:58:26;;;;;;;12.63;8.60;;;;;;;;;;5137376;27;20206;-62
2021/03/09 06:00:52;;;;;;;12.32;8.05;;;;;;;;;;5136300;27;20199;-62
2021/03/09 06:03:19;;;;;;;13.02;8.95;;;;;;;;;;5136602;27;20274;-61
2021/03/09 06:05:46;;;;;;;18.73;11.23;;;;;;;;;;5136358;27;20195;-61
2021/03/09 06:08:14;;;;;;;12.60;8.65;;;;;;;;;;5137182;27;20236;-62
2021/03/09 06:10:41;;;;;;;11.35;7.60;;;;;;;;;;5137769;27;20199;-62
2021/03/09 06:13:07;;;;;;;17.40;8.45;;;;;;;;;;5138696;27;20195;-62
2021/03/09 06:15:52;;;;;;;16.52;9.60;;;;;;;;;;5137446;27;20198;-61
2021/03/09 06:18:24;;;;;;;12.65;8.65;;;;;;;;;;5137710;27;20704;-61
2021/03/09 06:20:50;;;;;;;15.95;9.93;;;;;;;;;;5137205;27;20215;-60
2021/03/09 06:23:27;;;;;;;15.38;10.40;;;;;;;;;;5137570;27;20219;-62
2021/03/09 06:25:54;;;;;;;18.42;9.98;;;;;;;;;;5138223;27;20274;-61
2021/03/09 06:28:30;;;;;;;15.70;11.00;;;;;;;;;;5137056;27;20220;-62
2021/03/09 06:30:59;;;;;;;15.25;11.05;;;;;;;;;;5135233;27;20215;-62
2021/03/09 06:33:30;;;;;;;15.98;10.45;;;;;;;;;;5136592;27;20344;-61
2021/03/09 06:35:57;;;;;;;18.98;11.65;;;;;;;;;;5136041;27;20180;-62
2021/03/09 06:38:26;;;;;;;18.05;11.68;;;;;;;;;;5135976;27;20290;-61
2021/03/09 06:41:12;;;;;;;16.75;10.93;;;;;;;;;;5136201;27;20198;-63
2021/03/09 06:43:40;;;;;;;20.05;12.00;;;;;;;;;;5136127;27;20219;-60
2021/03/09 06:46:14;;;;;;;18.92;12.35;;;;;;;;;;5135960;27;20203;-61
2021/03/09 06:48:41;;;;;;;19.40;12.60;;;;;;;;;;5135777;27;20191;-61
2021/03/09 06:51:08;;;;;;;20.67;12.50;;;;;;;;;;5136003;27;20206;-62
2021/03/09 06:53:35;;;;;;;20.88;13.13;;;;;;;;;;5138933;27;20226;-61
2021/03/09 06:56:21;;;;;;;22.05;13.25;;;;;;;;;;5141588;27;20199;-61
2021/03/09 06:58:48;;;;;;;20.35;13.35;;;;;;;;;;5137925;27;20183;-62
2021/03/09 07:01:15;;;;;;;20.40;14.15;;;;;;;;;;5139896;27;20203;-62
2021/03/09 07:03:42;;;;;;;22.50;12.80;;;;;;;;;;5137887;27;20226;-61
2021/03/09 07:06:09;;;;;;;20.15;12.95;;;;;;;;;;5136185;27;20320;-61
2021/03/09 07:08:36;;;;;;;22.45;14.85;;;;;;;;;;5136078;27;20184;-62
2021/03/09 07:11:03;;;;;;;24.10;13.88;;;;;;;;;;5137584;27;20386;-62
2021/03/09 07:13:30;;;;;;;19.13;12.60;;;;;;;;;;5136490;27;20222;-61
2021/03/09 07:15:57;;;;;;;24.30;14.80;;;;;;;;;;5136943;27;20224;-62
2021/03/09 07:18:25;;;;;;;22.33;14.10;;;;;;;;;;5136584;27;20207;-63
2021/03/09 07:20:53;;;;;;;24.48;15.07;;;;;;;;;;5136148;27;20277;-61
2021/03/09 07:23:20;;;;;;;25.63;14.80;;;;;;;;;;5136230;27;20247;-61
2021/03/09 07:25:50;;;;;;;20.48;14.00;;;;;;;;;;5136222;27;20503;-61
2021/03/09 07:28:19;;;;;;;24.10;15.15;;;;;;;;;;5136080;27;20199;-61
2021/03/09 07:30:46;;;;;;;20.92;13.35;;;;;;;;;;5137234;27;20229;-61
2021/03/09 07:33:13;;;;;;;21.38;14.50;;;;;;;;;;5138702;27;20280;-61
2021/03/09 07:35:40;;;;;;;25.73;14.13;;;;;;;;;;5138137;27;20687;-62
2021/03/09 07:38:07;;;;;;;26.48;15.65;;;;;;;;;;5138516;27;20199;-61
2021/03/09 07:40:35;;;;;;;23.75;13.00;;;;;;;;;;5138575;27;20207;-62
2021/03/09 07:43:03;;;;;;;30.73;18.95;;;;;;;;;;5137165;27;20203;-61
2021/03/09 07:45:31;;;;;;;22.25;13.95;;;;;;;;;;5136639;27;20203;-61
2021/03/09 07:47:59;;;;;;;20.92;15.20;;;;;;;;;;5136361;27;20219;-62
2021/03/09 07:50:26;;;;;;;24.50;15.27;;;;;;;;;;5138396;27;20206;-62
2021/03/09 07:53:04;;;;;;;24.05;15.05;;;;;;;;;;5135244;27;20191;-61
2021/03/09 07:55:31;;;;;;;25.95;15.52;;;;;;;;;;5135264;27;20591;-62
2021/03/09 07:58:15;;;;;;;27.10;16.73;;;;;;;;;;5135976;27;20282;-61
2021/03/09 08:00:53;;;;;;;22.38;14.02;;;;;;;;;;5135265;27;20199;-61
2021/03/09 08:03:21;;;;;;;27.92;16.13;;;;;;;;;;5134870;27;20258;-61
2021/03/09 08:05:52;;;;;;;25.98;15.65;;;;;;;;;;5134792;27;20694;-61
2021/03/09 08:08:37;;;;;;;20.65;13.93;;;;;;;;;;5135405;27;20207;-62
2021/03/09 08:11:04;;;;;;;25.27;16.17;;;;;;;;;;5135370;27;20206;-59
2021/03/09 08:13:32;;;;;;;24.15;15.93;;;;;;;;;;5135007;27;20226;-60
2021/03/09 08:16:32;;;;;;;22.77;15.05;;;;;;;;;;5135205;27;20220;-61
2021/03/09 08:19:00;;;;;;;24.67;16.42;;;;;;;;;;5136003;27;20183;-61
2021/03/09 08:21:45;;;;;;;26.20;16.80;;;;;;;;;;5135783;27;20199;-62
2021/03/09 08:24:12;;;;;;;24.00;15.52;;;;;;;;;;5135547;27;20215;-58
2021/03/09 08:26:47;;;;;;;24.52;16.58;;;;;;;;;;5134740;27;20218;-62
2021/03/09 08:29:33;;;;;;;25.02;15.15;;;;;;;;;;5137196;27;20206;-62
2021/03/09 08:32:19;;;;;;;23.05;16.00;;;;;;;;;;5135374;27;20335;-61
2021/03/09 08:34:45;;;;;;;19.35;14.25;;;;;;;;;;5134770;27;20219;-61
2021/03/09 08:37:27;;;;;;;22.05;15.75;;;;;;;;;;5134703;27;20199;-60
2021/03/09 08:40:07;;;;;;;23.80;15.40;;;;;;;;;;5135079;27;20206;-60
2021/03/09 08:42:48;;;;;;;28.60;16.33;;;;;;;;;;5135796;27;20203;-61
2021/03/09 08:45:35;;;;;;;28.83;15.93;;;;;;;;;;5135001;28;20706;-62
2021/03/09 08:48:02;;;;;;;26.13;15.65;;;;;;;;;;5134675;27;20214;-61
2021/03/09 08:50:38;;;;;;;23.92;14.25;;;;;;;;;;5135105;27;20202;-60
2021/03/09 08:53:06;;;;;;;24.25;14.82;;;;;;;;;;5137156;27;20206;-61
2021/03/09 08:55:32;;;;;;;22.67;14.38;;;;;;;;;;5138943;27;20198;-60
2021/03/09 08:58:06;;;;;;;21.83;15.75;;;;;;;;;;5140625;27;20202;-60
2021/03/09 09:00:33;;;;;;;23.83;15.07;;;;;;;;;;5141435;27;20183;-60
2021/03/09 09:03:00;;;;;;;24.45;13.93;;;;;;;;;;5143728;27;20709;-60
2021/03/09 09:05:30;;;;;;;21.85;15.60;;;;;;;;;;5140123;27;20195;-60
2021/03/09 09:07:57;;;;;;;24.33;14.90;;;;;;;;;;5138211;27;20709;-61
2021/03/09 09:10:25;;;;;;;24.20;15.70;;;;;;;;;;5138664;27;20224;-59
2021/03/09 09:12:52;;;;;;;26.52;16.58;;;;;;;;;;5138181;27;20210;-62
2021/03/09 09:15:23;;;;;;;22.30;15.85;;;;;;;;;;5137846;27;20195;-60
2021/03/09 09:17:52;;;;;;;24.27;15.40;;;;;;;;;;5138972;27;20184;-59
2021/03/09 09:20:25;;;;;;;21.58;14.00;;;;;;;;;;5138356;27;20777;-61
2021/03/09 09:22:53;;;;;;;25.13;15.43;;;;;;;;;;5138088;27;20604;-60
2021/03/09 09:25:20;;;;;;;22.05;14.10;;;;;;;;;;5138544;27;20726;-60
2021/03/09 09:27:50;;;;;;;24.02;15.82;;;;;;;;;;5138267;27;20218;-62
2021/03/09 09:30:19;;;;;;;26.02;15.02;;;;;;;;;;5138063;27;20183;-61
2021/03/09 09:32:49;;;;;;;22.67;15.48;;;;;;;;;;5138277;27;20545;-61
2021/03/09 09:35:17;;;;;;;24.17;15.83;;;;;;;;;;5137279;27;20444;-61
2021/03/09 09:37:48;;;;;;;22.05;15.63;;;;;;;;;;5138447;27;20440;-61
2021/03/09 09:40:16;;;;;;;24.55;15.20;;;;;;;;;;5141874;27;20207;-60
2021/03/09 09:42:42;;;;;;;22.10;14.13;;;;;;;;;;5138828;27;20198;-59
2021/03/09 09:45:10;;;;;;;22.60;15.77;;;;;;;;;;5137663;27;20223;-60
2021/03/09 09:47:37;;;;;;;24.10;14.13;;;;;;;;;;5138113;27;20256;-60
2021/03/09 09:50:04;;;;;;;21.95;14.95;;;;;;;;;;5139361;27;20207;-59
2021/03/09 09:52:31;;;;;;;19.70;14.15;;;;;;;;;;5139175;27;20227;-59
2021/03/09 09:54:59;;;;;;;21.75;14.30;;;;;;;;;;5142622;27;20230;-60
2021/03/09 09:57:26;;;;;;;23.38;14.07;;;;;;;;;;5154756;27;20562;-61
2021/03/09 09:59:53;;;;;;;21.23;14.70;;;;;;;;;;5147017;27;20210;-60
2021/03/09 10:02:21;;;;;;;24.77;14.00;;;;;;;;;;5143757;27;20202;-61
2021/03/09 10:04:48;;;;;;;24.77;15.05;;;;;;;;;;5148261;27;20242;-61
2021/03/09 10:07:19;;;;;;;21.70;15.25;;;;;;;;;;5146713;27;20234;-60
2021/03/09 10:10:04;;;;;;;24.42;15.63;;;;;;;;;;5143777;27;20206;-60
2021/03/09 10:12:36;;;;;;;19.92;13.25;;;;;;;;;;5140873;27;20230;-59
2021/03/09 10:15:03;;;;;;;22.45;14.07;;;;;;;;;;5142863;27;20230;-62
2021/03/09 10:17:30;;;;;;;24.88;15.45;;;;;;;;;;5139432;27;20682;-60
2021/03/09 10:19:56;;;;;;;19.90;13.75;;;;;;;;;;5139640;27;20206;-60
2021/03/09 10:22:24;;;;;;;24.35;15.70;;;;;;;;;;5140536;27;20663;-62
2021/03/09 10:24:51;;;;;;;21.52;14.07;;;;;;;;;;5136797;27;20223;-61
2021/03/09 10:27:18;;;;;;;25.38;14.73;;;;;;;;;;5137309;27;20563;-61
2021/03/09 10:29:46;;;;;;;20.63;14.63;;;;;;;;;;5137915;27;20233;-61
2021/03/09 10:32:17;;;;;;;22.25;14.98;;;;;;;;;;5137247;27;20227;-59
2021/03/09 10:34:44;;;;;;;20.35;14.50;;;;;;;;;;5141071;27;20563;-60
2021/03/09 10:37:11;;;;;;;18.55;13.68;;;;;;;;;;5142350;27;20691;-60
2021/03/09 10:39:39;;;;;;;21.40;14.60;;;;;;;;;;5143453;27;20203;-60
2021/03/09 10:42:24;;;;;;;21.63;13.80;;;;;;;;;;5139371;27;20248;-60
2021/03/09 10:44:52;;;;;;;20.08;15.75;;;;;;;;;;5141145;27;20225;-60
2021/03/09 10:47:19;;;;;;;20.50;13.30;;;;;;;;;;5137640;27;20223;-61
2021/03/09 10:49:45;;;;;;;21.23;14.40;;;;;;;;;;5138350;27;20203;-61
2021/03/09 10:52:12;;;;;;;24.55;16.63;;;;;;;;;;5137675;27;20224;-61
2021/03/09 10:54:39;;;;;;;22.77;15.05;;;;;;;;;;5139824;27;20223;-59
2021/03/09 10:57:07;;;;;;;19.17;13.98;;;;;;;;;;5142355;27;20670;-60
2021/03/09 10:59:33;;;;;;;21.45;14.88;;;;;;;;;;5137423;27;20662;-59
2021/03/09 11:02:01;;;;;;;20.02;14.38;;;;;;;;;;5137107;27;20248;-60
2021/03/09 11:04:28;;;;;;;22.27;14.27;;;;;;;;;;5136475;27;20221;-59
2021/03/09 11:06:55;;;;;;;21.75;15.25;;;;;;;;;;5137239;27;20840;-59
2021/03/09 11:09:22;;;;;;;23.33;15.57;;;;;;;;;;5136107;27;20203;-59
2021/03/09 11:11:48;;;;;;;20.17;14.50;;;;;;;;;;5135978;27;20199;-61
2021/03/09 11:14:15;;;;;;;19.48;15.18;;;;;;;;;;5136298;27;20222;-61
2021/03/09 11:16:42;;;;;;;21.90;14.10;;;;;;;;;;5136596;27;20195;-61
2021/03/09 11:19:11;;;;;;;21.90;14.80;;;;;;;;;;5137060;27;20218;-61
2021/03/09 11:21:38;;;;;;;18.85;13.32;;;;;;;;;;5138928;27;20584;-61
2021/03/09 11:24:05;;;;;;;21.20;14.60;;;;;;;;;;5138133;27;20219;-61
2021/03/09 11:26:32;;;;;;;18.67;13.82;;;;;;;;;;5138030;27;20203;-60
2021/03/09 11:28:59;;;;;;;19.80;14.32;;;;;;;;;;5137764;27;20202;-61
2021/03/09 11:31:26;;;;;;;19.15;13.80;;;;;;;;;;5138294;27;20211;-61
2021/03/09 11:33:53;;;;;;;20.88;13.00;;;;;;;;;;5137115;27;20219;-60
2021/03/09 11:36:21;;;;;;;19.55;14.23;;;;;;;;;;5136843;27;20234;-61
2021/03/09 11:38:48;;;;;;;21.65;16.75;;;;;;;;;;5135394;27;20202;-59
2021/03/09 11:41:16;;;;;;;17.20;14.60;;;;;;;;;;5135657;27;20207;-59
2021/03/09 11:43:43;;;;;;;26.30;16.40;;;;;;;;;;5135325;27;20225;-60
2021/03/09 11:46:09;;;;;;;23.48;15.57;;;;;;;;;;5135517;27;20248;-60
2021/03/09 11:48:36;;;;;;;20.42;15.02;;;;;;;;;;5135482;27;20223;-60
2021/03/09 11:51:04;;;;;;;25.83;16.17;;;;;;;;;;5135483;27;20198;-60
2021/03/09 11:53:31;;;;;;;22.48;15.85;;;;;;;;;;5135166;27;20267;-61
2021/03/09 11:55:58;;;;;;;19.08;13.63;;;;;;;;;;5135518;27;20202;-61
2021/03/09 11:58:26;;;;;;;28.95;21.77;;;;;;;;;;5136386;27;20202;-61
2021/03/09 12:00:52;;;;;;;30.20;22.75;;;;;;;;;;5135800;27;20199;-59
2021/03/09 12:03:19;;;;;;;44.42;31.17;;;;;;;;;;5136375;27;20219;-60
2021/03/09 12:05:46;;;;;;;38.03;24.58;;;;;;;;;;5135821;27;20271;-60
2021/03/09 12:08:13;;;;;;;34.65;25.67;;;;;;;;;;5135908;27;20210;-62
2021/03/09 12:10:40;;;;;;;23.65;16.50;;;;;;;;;;5137883;27;20199;-59
2021/03/09 12:13:07;;;;;;;22.08;15.32;;;;;;;;;;5136111;27;20210;-61
2021/03/09 12:15:34;;;;;;;19.17;13.93;;;;;;;;;;5135968;27;20207;-62
2021/03/09 12:18:01;;;;;;;19.80;15.00;;;;;;;;;;5136389;27;20263;-59
2021/03/09 12:20:28;;;;;;;24.42;14.90;;;;;;;;;;5135142;27;20203;-61
2021/03/09 12:22:55;;;;;;;21.65;14.68;;;;;;;;;;5135164;27;20199;-62
2021/03/09 12:25:22;;;;;;;22.27;15.00;;;;;;;;;;5134654;27;20247;-60
2021/03/09 12:27:49;;;;;;;22.35;14.85;;;;;;;;;;5134982;27;20211;-61
2021/03/09 12:30:17;;;;;;;22.08;15.30;;;;;;;;;;5139207;27;20194;-61
2021/03/09 12:32:43;;;;;;;19.95;14.60;;;;;;;;;;5138808;27;20233;-61
2021/03/09 12:35:11;;;;;;;20.23;15.20;;;;;;;;;;5138535;27;20226;-61
2021/03/09 12:37:38;;;;;;;24.63;15.07;;;;;;;;;;5139150;27;20262;-60
2021/03/09 12:40:05;;;;;;;21.27;15.80;;;;;;;;;;5139137;27;20203;-61
2021/03/09 12:42:32;;;;;;;21.05;14.35;;;;;;;;;;5139063;27;20202;-59
2021/03/09 12:45:00;;;;;;;24.25;15.55;;;;;;;;;;5138735;27;20237;-60
2021/03/09 12:47:27;;;;;;;21.17;15.30;;;;;;;;;;5140627;27;20215;-60
2021/03/09 12:49:53;;;;;;;20.27;15.35;;;;;;;;;;5140055;27;20199;-61
2021/03/09 12:52:20;;;;;;;22.50;15.20;;;;;;;;;;5138992;27;20279;-60
2021/03/09 12:54:47;;;;;;;20.40;14.93;;;;;;;;;;5146244;27;20215;-61
2021/03/09 12:57:14;;;;;;;22.80;15.50;;;;;;;;;;5151394;27;20196;-60
2021/03/09 12:59:40;;;;;;;20.55;16.02;;;;;;;;;;5139503;27;20666;-61
2021/03/09 13:02:08;;;;;;;22.02;16.08;;;;;;;;;;5141950;27;20199;-61
2021/03/09 13:04:35;;;;;;;25.83;14.32;;;;;;;;;;5139365;27;20628;-61
2021/03/09 13:07:02;;;;;;;20.88;15.95;;;;;;;;;;5138706;27;20581;-60
2021/03/09 13:09:28;;;;;;;19.38;14.90;;;;;;;;;;5140670;27;20203;-59
2021/03/09 13:11:55;;;;;;;20.02;14.02;;;;;;;;;;5139378;27;20199;-60
2021/03/09 13:14:22;;;;;;;20.75;14.35;;;;;;;;;;5140690;27;20219;-59
2021/03/09 13:16:49;;;;;;;19.83;14.45;;;;;;;;;;5143080;27;20199;-60
2021/03/09 13:19:17;;;;;;;21.08;15.02;;;;;;;;;;5142696;27;20198;-61
2021/03/09 13:21:43;;;;;;;17.30;14.10;;;;;;;;;;5141926;27;20195;-61
2021/03/09 13:24:10;;;;;;;18.70;13.80;;;;;;;;;;5139809;27;20227;-60
2021/03/09 13:26:37;;;;;;;18.65;14.13;;;;;;;;;;5139456;27;20199;-60
2021/03/09 13:29:04;;;;;;;23.63;14.95;;;;;;;;;;5140975;27;20203;-60
2021/03/09 13:31:30;;;;;;;17.50;13.98;;;;;;;;;;5141151;27;20198;-61
2021/03/09 13:33:57;;;;;;;17.60;13.90;;;;;;;;;;5141556;27;20226;-61
2021/03/09 13:36:25;;;;;;;22.20;14.10;;;;;;;;;;5140797;27;20207;-60
2021/03/09 13:38:52;;;;;;;17.85;13.20;;;;;;;;;;5139454;27;20195;-59
2021/03/09 13:41:18;;;;;;;20.95;13.60;;;;;;;;;;5139974;27;20558;-59
2021/03/09 13:43:45;;;;;;;18.27;13.65;;;;;;;;;;5142222;27;20227;-60
2021/03/09 13:46:12;;;;;;;17.58;13.63;;;;;;;;;;5143664;27;20321;-59
2021/03/09 13:48:40;;;;;;;21.60;14.05;;;;;;;;;;5141393;27;20694;-60
2021/03/09 13:51:07;;;;;;;19.40;13.82;;;;;;;;;;5144174;27;20290;-61
2021/03/09 13:53:34;;;;;;;20.67;13.73;;;;;;;;;;5142807;27;20223;-61
2021/03/09 13:56:01;;;;;;;17.25;13.73;;;;;;;;;;5142671;27;20199;-60
2021/03/09 13:58:28;;;;;;;19.70;14.00;;;;;;;;;;5143389;27;20199;-60
2021/03/09 14:00:55;;;;;;;18.52;13.98;;;;;;;;;;5143931;27;20210;-61
2021/03/09 14:03:21;;;;;;;19.92;13.30;;;;;;;;;;5141836;27;20240;-60
2021/03/09 14:05:48;;;;;;;17.30;13.25;;;;;;;;;;5139119;27;20199;-61
2021/03/09 14:08:15;;;;;;;18.35;13.70;;;;;;;;;;5138852;27;20207;-60
2021/03/09 14:10:43;;;;;;;19.00;13.23;;;;;;;;;;5138132;27;20920;-60
2021/03/09 14:13:12;;;;;;;18.10;14.15;;;;;;;;;;5140855;27;20210;-60
2021/03/09 14:15:39;;;;;;;18.75;15.35;;;;;;;;;;5139791;27;20464;-61
2021/03/09 14:18:06;;;;;;;20.08;14.82;;;;;;;;;;5139109;27;20199;-60
2021/03/09 14:20:33;;;;;;;19.00;14.30;;;;;;;;;;5139527;27;20199;-60
2021/03/09 14:23:00;;;;;;;16.92;13.20;;;;;;;;;;5139443;27;20203;-61
2021/03/09 14:25:27;;;;;;;19.25;14.13;;;;;;;;;;5137761;27;20203;-61
2021/03/09 14:27:55;;;;;;;20.77;13.60;;;;;;;;;;5138216;27;20218;-61
2021/03/09 14:30:22;;;;;;;17.13;13.93;;;;;;;;;;5138449;27;20203;-61
2021/03/09 14:32:49;;;;;;;20.65;14.55;;;;;;;;;;5137866;27;20199;-61
2021/03/09 14:35:16;;;;;;;19.40;14.48;;;;;;;;;;5137427;27;20219;-61